Time;durP1;ratioP1;P1;durP2;ratioP2;P2;SDS_P1;SDS_P2;PMS_P1;PMS_P2;Temp;Humidity;BMP_temperature;BMP_pressure;BME280_temperature;BME280_humidity;BME280_pressure;Samples;Min_cycle;Max_cycle;Signal;HPM_P1;HPM_P2
2020/12/04 00:00:01;;;;;;;30.63;14.52;;;;;;;-0.01;62.70;99433.25;682873;28;68016;-64
2020/12/04 00:00:25;;;;;;;31.27;15.00;;;;;;;-0.01;63.01;99429.75;682650;28;71624;-63
2020/12/04 00:00:46;;;;;;;32.13;15.10;;;;;;;-0.01;63.17;99430.59;684764;28;13115;-65
2020/12/04 00:01:08;;;;;;;30.90;15.05;;;;;;;-0.02;62.94;99428.94;684044;28;23947;-63
2020/12/04 00:01:29;;;;;;;32.35;15.18;;;;;;;-0.02;62.90;99431.59;683885;28;22442;-63
2020/12/04 00:01:50;;;;;;;31.52;14.75;;;;;;;-0.03;62.78;99429.06;683123;28;46365;-62
2020/12/04 00:02:12;;;;;;;31.58;15.05;;;;;;;-0.02;62.84;99420.97;684473;28;23575;-63
2020/12/04 00:02:33;;;;;;;30.13;14.90;;;;;;;-0.02;62.95;99430.72;684202;28;24376;-63
2020/12/04 00:02:55;;;;;;;29.77;14.65;;;;;;;-0.03;62.90;99427.25;684593;28;21442;-63
2020/12/04 00:03:16;;;;;;;29.88;14.40;;;;;;;-0.03;63.21;99424.59;682351;28;44402;-62
2020/12/04 00:03:38;;;;;;;29.85;14.15;;;;;;;-0.03;62.87;99437.03;682119;28;21538;-64
2020/12/04 00:03:59;;;;;;;30.17;14.57;;;;;;;-0.04;62.82;99428.22;683785;28;23495;-63
2020/12/04 00:04:20;;;;;;;32.30;14.52;;;;;;;-0.03;62.67;99426.41;684144;28;1136;-63
2020/12/04 00:04:42;;;;;;;31.40;14.88;;;;;;;-0.04;62.94;99433.53;683274;28;43691;-64
2020/12/04 00:05:03;;;;;;;30.63;14.57;;;;;;;-0.03;62.92;99424.59;683820;28;9974;-63
2020/12/04 00:05:25;;;;;;;29.15;13.93;;;;;;;-0.04;63.05;99428.22;683211;28;46538;-63
2020/12/04 00:05:46;;;;;;;30.15;14.60;;;;;;;-0.06;62.67;99424.88;683902;28;23345;-64
2020/12/04 00:06:07;;;;;;;30.42;14.88;;;;;;;-0.05;62.83;99429.22;684532;28;22841;-64
2020/12/04 00:06:29;;;;;;;31.13;15.57;;;;;;;-0.04;62.86;99425.56;683432;28;47269;-63
2020/12/04 00:06:50;;;;;;;29.55;14.80;;;;;;;-0.03;63.03;99429.91;684172;28;23469;-61
2020/12/04 00:07:11;;;;;;;31.23;14.48;;;;;;;-0.04;62.79;99430.88;683431;28;44360;-64
2020/12/04 00:07:32;;;;;;;28.45;13.90;;;;;;;-0.05;62.78;99428.34;683781;28;23485;-64
2020/12/04 00:07:54;;;;;;;28.52;13.38;;;;;;;-0.06;62.85;99432.84;684266;28;21523;-63
2020/12/04 00:08:15;;;;;;;32.15;15.23;;;;;;;-0.06;63.10;99426.69;683286;28;45270;-63
2020/12/04 00:08:37;;;;;;;30.50;14.95;;;;;;;-0.05;62.88;99431.88;684248;28;22436;-64
2020/12/04 00:08:58;;;;;;;32.20;14.85;;;;;;;-0.06;62.85;99432.00;683692;28;46361;-63
2020/12/04 00:09:19;;;;;;;33.47;15.02;;;;;;;-0.07;63.04;99428.50;684382;28;24428;-64
2020/12/04 00:09:42;;;;;;;31.42;15.40;;;;;;;-0.08;63.04;99431.28;684260;28;22388;-61
2020/12/04 00:10:04;;;;;;;29.23;14.70;;;;;;;-0.11;62.84;99427.13;685036;28;921;-63
2020/12/04 00:10:26;;;;;;;30.48;14.50;;;;;;;-0.08;62.92;99431.28;684951;28;940;-63
2020/12/04 00:10:48;;;;;;;29.90;14.68;;;;;;;-0.08;63.17;99433.94;684919;28;1654;-64
2020/12/04 00:11:10;;;;;;;30.58;14.82;;;;;;;-0.08;63.17;99433.94;683603;28;45323;-61
2020/12/04 00:11:33;;;;;;;31.77;15.45;;;;;;;-0.07;62.92;99432.97;684330;28;23515;-63
2020/12/04 00:11:55;;;;;;;31.73;15.02;;;;;;;-0.08;62.91;99432.16;681477;28;92934;-62
2020/12/04 00:12:16;;;;;;;33.10;14.98;;;;;;;-0.07;62.84;99433.81;683641;28;46312;-64
2020/12/04 00:12:40;;;;;;;28.83;14.15;;;;;;;-0.08;62.75;99434.81;684306;28;22475;-63
2020/12/04 00:13:02;;;;;;;31.92;14.93;;;;;;;-0.09;62.64;99430.47;681966;28;92041;-62
2020/12/04 00:13:23;;;;;;;30.92;14.65;;;;;;;-0.09;62.63;99430.47;683236;28;46223;-64
2020/12/04 00:13:44;;;;;;;31.48;14.95;;;;;;;-0.11;62.84;99435.09;684147;28;22902;-63
2020/12/04 00:14:06;;;;;;;29.05;14.52;;;;;;;-0.11;63.15;99432.44;684092;28;22406;-64
2020/12/04 00:14:27;;;;;;;29.05;13.93;;;;;;;-0.09;62.97;99430.47;684130;28;23487;-63
2020/12/04 00:14:48;;;;;;;30.17;14.77;;;;;;;-0.08;63.02;99433.94;683651;28;46413;-63
2020/12/04 00:15:10;;;;;;;31.73;15.10;;;;;;;-0.08;63.15;99436.59;683906;28;22414;-63
2020/12/04 00:15:31;;;;;;;29.48;14.90;;;;;;;-0.08;63.03;99428.63;683200;28;46266;-63
2020/12/04 00:15:53;;;;;;;28.23;14.82;;;;;;;-0.07;62.93;99435.63;684525;28;21528;-63
2020/12/04 00:16:14;;;;;;;26.85;14.23;;;;;;;-0.08;62.81;99431.28;683110;28;46869;-63
2020/12/04 00:16:36;;;;;;;30.65;14.65;;;;;;;-0.08;62.72;99431.28;684695;28;6572;-64
2020/12/04 00:16:57;;;;;;;31.05;14.52;;;;;;;-0.08;62.81;99433.94;683099;28;46338;-63
2020/12/04 00:17:19;;;;;;;31.63;14.65;;;;;;;-0.09;62.82;99426.97;684068;28;23455;-63
2020/12/04 00:17:40;;;;;;;31.75;14.90;;;;;;;-0.10;63.00;99420.81;683285;28;46377;-63
2020/12/04 00:18:01;;;;;;;30.35;15.15;;;;;;;-0.10;62.98;99423.47;684124;28;23468;-62
2020/12/04 00:18:23;;;;;;;32.20;14.90;;;;;;;-0.10;63.09;99423.47;683579;28;20862;-64
2020/12/04 00:18:44;;;;;;;31.73;14.73;;;;;;;-0.10;62.89;99428.78;684294;28;21823;-64
2020/12/04 00:19:06;;;;;;;30.58;14.40;;;;;;;-0.10;62.93;99426.13;683408;28;46577;-64
2020/12/04 00:19:27;;;;;;;31.33;14.40;;;;;;;-0.11;63.11;99413.00;683253;28;46352;-64
2020/12/04 00:19:48;;;;;;;31.70;14.70;;;;;;;-0.11;63.02;99418.28;684346;28;24431;-64
2020/12/04 00:20:10;;;;;;;29.58;14.98;;;;;;;-0.09;63.20;99416.38;684181;28;23423;-63
2020/12/04 00:20:31;;;;;;;32.40;14.77;;;;;;;-0.11;63.14;99423.59;683505;28;44390;-62
2020/12/04 00:20:52;;;;;;;31.50;14.77;;;;;;;-0.12;63.04;99420.13;684360;28;22332;-64
2020/12/04 00:21:13;;;;;;;29.73;14.60;;;;;;;-0.13;63.06;99415.78;685157;28;974;-64
2020/12/04 00:21:35;;;;;;;31.67;15.15;;;;;;;-0.11;63.01;99420.94;684226;28;23544;-64
2020/12/04 00:21:56;;;;;;;31.55;14.65;;;;;;;-0.11;63.00;99419.16;683356;28;45248;-64
2020/12/04 00:22:17;;;;;;;28.33;13.80;;;;;;;-0.11;63.00;99421.81;684100;28;23466;-64
2020/12/04 00:22:39;;;;;;;30.58;14.93;;;;;;;-0.10;63.03;99420.00;683154;28;47201;-63
2020/12/04 00:23:00;;;;;;;30.65;14.48;;;;;;;-0.11;62.84;99420.94;684105;28;3798;-64
2020/12/04 00:23:22;;;;;;;29.83;14.68;;;;;;;-0.11;62.81;99420.94;684742;28;7963;-62
2020/12/04 00:23:43;;;;;;;30.23;14.07;;;;;;;-0.10;63.02;99418.16;683205;28;45266;-62
2020/12/04 00:24:04;;;;;;;34.17;14.30;;;;;;;-0.10;62.91;99420.81;684316;28;22479;-64
2020/12/04 00:24:28;;;;;;;29.48;13.63;;;;;;;-0.09;62.96;99414.53;684300;28;23418;-63
2020/12/04 00:24:50;;;;;;;28.13;14.55;;;;;;;-0.09;62.96;99422.50;681206;28;115257;-64
2020/12/04 00:25:11;;;;;;;28.17;14.43;;;;;;;-0.09;63.15;99417.19;683657;28;22396;-64
2020/12/04 00:25:33;;;;;;;25.80;14.35;;;;;;;-0.08;63.22;99423.31;683001;28;46341;-64
2020/12/04 00:25:54;;;;;;;27.48;13.55;;;;;;;-0.09;63.19;99411.88;683771;28;22418;-64
2020/12/04 00:26:16;;;;;;;30.17;14.27;;;;;;;-0.09;62.95;99422.50;683511;28;22395;-64
2020/12/04 00:26:37;;;;;;;37.58;17.48;;;;;;;-0.10;63.05;99426.13;683285;28;46438;-64
2020/12/04 00:26:59;;;;;;;39.83;18.98;;;;;;;-0.10;62.86;99425.28;683523;28;47651;-64
2020/12/04 00:27:20;;;;;;;32.42;15.38;;;;;;;-0.10;62.85;99427.94;684386;28;22346;-64
2020/12/04 00:27:42;;;;;;;29.88;13.75;;;;;;;-0.10;62.79;99418.16;683897;28;23488;-62
2020/12/04 00:28:04;;;;;;;29.02;13.82;;;;;;;-0.09;62.86;99416.38;683380;28;46431;-62
2020/12/04 00:28:25;;;;;;;29.98;14.38;;;;;;;-0.10;62.71;99417.31;682648;28;66517;-64
2020/12/04 00:28:47;;;;;;;30.07;14.50;;;;;;;-0.12;62.74;99416.66;684290;28;20960;-64
2020/12/04 00:29:09;;;;;;;28.23;14.40;;;;;;;-0.13;63.06;99412.31;683668;28;44372;-63
2020/12/04 00:29:30;;;;;;;27.10;14.25;;;;;;;-0.13;63.02;99410.47;683736;28;30440;-64
2020/12/04 00:29:51;;;;;;;26.88;14.00;;;;;;;-0.14;62.98;99422.09;684141;28;22421;-62
2020/12/04 00:30:12;;;;;;;28.85;14.00;;;;;;;-0.13;62.84;99417.63;683999;28;21342;-64
2020/12/04 00:30:34;;;;;;;30.05;14.93;;;;;;;-0.15;62.89;99411.63;682643;28;44532;-64
2020/12/04 00:30:55;;;;;;;28.00;14.02;;;;;;;-0.15;62.87;99409.78;683184;28;23220;-64
2020/12/04 00:31:16;;;;;;;28.70;14.20;;;;;;;-0.13;63.10;99412.31;682114;28;46364;-64
2020/12/04 00:31:38;;;;;;;29.45;14.38;;;;;;;-0.16;62.94;99410.75;682073;28;21571;-64
2020/12/04 00:31:59;;;;;;;30.15;14.35;;;;;;;-0.16;62.91;99415.25;683710;28;3395;-63
2020/12/04 00:32:21;;;;;;;27.80;13.52;;;;;;;-0.15;63.05;99412.44;684077;28;20328;-63
2020/12/04 00:32:42;;;;;;;27.90;13.93;;;;;;;-0.14;62.85;99413.28;682422;28;36879;-63
2020/12/04 00:33:03;;;;;;;28.65;13.73;;;;;;;-0.15;62.78;99412.44;683794;28;23588;-63
2020/12/04 00:33:25;;;;;;;28.65;14.27;;;;;;;-0.15;62.80;99407.13;682871;28;41865;-64
2020/12/04 00:33:46;;;;;;;27.55;13.77;;;;;;;-0.15;62.89;99409.78;683578;28;15821;-63
2020/12/04 00:34:08;;;;;;;28.35;13.02;;;;;;;-0.16;62.99;99413.41;684291;28;19223;-64
2020/12/04 00:34:29;;;;;;;30.58;14.20;;;;;;;-0.16;63.00;99413.41;683832;28;22557;-61
2020/12/04 00:34:50;;;;;;;28.33;14.23;;;;;;;-0.15;62.92;99401.81;682812;28;22501;-64
2020/12/04 00:35:11;;;;;;;28.52;13.23;;;;;;;-0.16;62.81;99405.44;682445;28;27327;-64
2020/12/04 00:35:33;;;;;;;28.08;13.68;;;;;;;-0.17;63.08;99405.59;683533;28;24314;-62
2020/12/04 00:35:54;;;;;;;28.65;14.13;;;;;;;-0.17;63.01;99413.56;683302;28;44396;-63
2020/12/04 00:36:16;;;;;;;29.27;13.70;;;;;;;-0.16;63.31;99402.78;684034;28;21678;-63
2020/12/04 00:36:37;;;;;;;26.45;13.43;;;;;;;-0.16;63.21;99402.78;683661;28;24418;-64
2020/12/04 00:36:59;;;;;;;29.03;14.23;;;;;;;-0.17;63.07;99401.16;683743;28;21375;-63
2020/12/04 00:37:20;;;;;;;25.95;14.18;;;;;;;-0.16;63.32;99405.44;683069;28;45307;-64
2020/12/04 00:37:42;;;;;;;27.08;13.20;;;;;;;-0.17;63.12;99409.09;682943;28;45309;-64
2020/12/04 00:38:03;;;;;;;27.70;13.00;;;;;;;-0.17;63.01;99403.78;683877;28;23443;-63
2020/12/04 00:38:25;;;;;;;27.67;14.00;;;;;;;-0.17;63.05;99405.59;683653;28;22425;-62
2020/12/04 00:38:46;;;;;;;25.88;13.05;;;;;;;-0.17;63.08;99402.94;682982;28;45362;-63
2020/12/04 00:39:07;;;;;;;27.90;13.35;;;;;;;-0.19;62.94;99406.59;684014;28;21545;-64
2020/12/04 00:39:28;;;;;;;26.70;13.48;;;;;;;-0.18;62.98;99404.75;683011;28;44370;-64
2020/12/04 00:39:52;;;;;;;26.48;13.65;;;;;;;-0.17;63.03;99406.44;684639;28;1333;-64
2020/12/04 00:40:14;;;;;;;27.38;13.48;;;;;;;-0.17;63.09;99408.25;683351;28;38292;-64
2020/12/04 00:40:35;;;;;;;29.30;13.82;;;;;;;-0.25;63.08;99400.97;683052;28;47899;-63
2020/12/04 00:40:57;;;;;;;29.75;13.80;;;;;;;-0.25;63.04;99395.69;684631;28;1287;-64
2020/12/04 00:41:18;;;;;;;26.83;13.55;;;;;;;-0.17;62.93;99400.28;682137;28;1288;-64
2020/12/04 00:41:40;;;;;;;26.83;13.20;;;;;;;-0.20;63.11;99404.91;683769;28;22405;-63
2020/12/04 00:42:01;;;;;;;26.70;12.90;;;;;;;-0.19;63.06;99403.06;682842;28;44452;-64
2020/12/04 00:42:23;;;;;;;27.55;13.00;;;;;;;-0.19;63.29;99401.28;683582;28;23436;-63
2020/12/04 00:42:45;;;;;;;26.95;13.35;;;;;;;-0.17;63.25;99408.25;683267;28;46578;-64
2020/12/04 00:43:08;;;;;;;25.52;12.95;;;;;;;-0.18;63.10;99404.75;683118;28;45294;-64
2020/12/04 00:43:29;;;;;;;27.25;13.10;;;;;;;-0.18;62.93;99407.41;683164;28;46440;-64
2020/12/04 00:43:51;;;;;;;27.08;13.13;;;;;;;-0.17;62.86;99406.44;684074;28;22476;-62
2020/12/04 00:44:12;;;;;;;28.42;13.60;;;;;;;-0.18;63.10;99404.75;683796;28;17825;-62
2020/12/04 00:44:34;;;;;;;28.10;14.23;;;;;;;-0.18;62.93;99402.09;684536;28;1915;-64
2020/12/04 00:44:55;;;;;;;28.38;14.02;;;;;;;-0.20;62.84;99399.59;683144;28;37302;-64
2020/12/04 00:45:16;;;;;;;27.38;13.30;;;;;;;-0.19;63.09;99400.41;682882;28;23457;-64
2020/12/04 00:45:38;;;;;;;29.13;13.38;;;;;;;-0.19;63.04;99403.94;683730;28;21520;-64
2020/12/04 00:45:59;;;;;;;29.05;13.65;;;;;;;-0.19;63.08;99408.38;683793;28;22497;-64
2020/12/04 00:46:21;;;;;;;25.52;12.93;;;;;;;-0.20;62.90;99406.72;679916;29;44382;-64
2020/12/04 00:46:43;;;;;;;26.20;13.20;;;;;;;-0.21;62.96;99405.88;679741;29;53747;-64
2020/12/04 00:47:06;;;;;;;28.17;13.50;;;;;;;-0.21;62.93;99407.69;678826;29;1290;-64
2020/12/04 00:47:28;;;;;;;26.13;13.63;;;;;;;-0.21;62.96;99410.34;675828;29;22422;-64
2020/12/04 00:47:49;;;;;;;28.08;13.55;;;;;;;-0.21;63.17;99410.34;675199;29;43502;-63
2020/12/04 00:48:11;;;;;;;26.45;13.25;;;;;;;-0.21;63.07;99410.34;675309;29;43657;-64
2020/12/04 00:48:33;;;;;;;29.55;14.23;;;;;;;-0.23;62.90;99409.66;677679;29;1103;-63
2020/12/04 00:48:55;;;;;;;30.35;14.20;;;;;;;-0.22;62.88;99411.31;679903;29;10515;-63
2020/12/04 00:49:16;;;;;;;28.88;13.70;;;;;;;-0.22;63.02;99411.31;678040;29;46633;-61
2020/12/04 00:49:38;;;;;;;27.73;13.70;;;;;;;-0.22;63.25;99413.97;681224;29;22255;-62
2020/12/04 00:50:00;;;;;;;27.02;13.20;;;;;;;-0.22;63.38;99409.53;681237;28;40525;-63
2020/12/04 00:50:21;;;;;;;27.00;13.40;;;;;;;-0.21;63.25;99413.00;682953;28;47535;-63
2020/12/04 00:50:42;;;;;;;27.80;12.98;;;;;;;-0.21;63.45;99415.66;683723;28;23343;-63
2020/12/04 00:51:04;;;;;;;25.95;13.30;;;;;;;-0.21;63.11;99405.88;680930;28;23410;-63
2020/12/04 00:51:26;;;;;;;25.00;13.55;;;;;;;-0.21;63.27;99402.38;679267;29;46358;-63
2020/12/04 00:51:51;;;;;;;28.38;13.98;;;;;;;-0.20;62.98;99412.88;674675;29;92081;-62
2020/12/04 00:52:13;;;;;;;28.13;13.38;;;;;;;-0.20;63.11;99402.25;675080;29;80478;-61
2020/12/04 00:52:35;;;;;;;27.95;13.05;;;;;;;-0.19;63.22;99417.19;677395;29;23643;-63
2020/12/04 00:52:56;;;;;;;26.40;12.68;;;;;;;-0.18;63.10;99410.06;678521;29;44399;-62
2020/12/04 00:53:18;;;;;;;24.67;13.48;;;;;;;-0.19;63.20;99408.38;680209;29;17878;-64
2020/12/04 00:53:40;;;;;;;26.55;13.40;;;;;;;-0.20;63.13;99399.59;680248;28;65123;-63
2020/12/04 00:54:03;;;;;;;27.17;13.00;;;;;;;-0.19;62.99;99403.06;683089;28;45248;-62
2020/12/04 00:54:25;;;;;;;26.55;13.25;;;;;;;-0.19;63.01;99403.06;679159;29;69438;-64
2020/12/04 00:54:47;;;;;;;25.55;13.27;;;;;;;-0.18;63.17;99402.09;679003;29;46452;-63
2020/12/04 00:55:08;;;;;;;27.05;13.32;;;;;;;-0.19;63.02;99408.38;679725;29;21505;-62
2020/12/04 00:55:30;;;;;;;30.60;13.90;;;;;;;-0.18;63.25;99402.09;676145;29;45276;-64
2020/12/04 00:55:52;;;;;;;28.83;13.18;;;;;;;-0.18;63.08;99404.75;674792;29;22396;-64
2020/12/04 00:56:16;;;;;;;27.45;12.77;;;;;;;-0.19;63.06;99403.94;673467;29;44375;-63
2020/12/04 00:56:38;;;;;;;25.98;12.90;;;;;;;-0.15;62.94;99401.81;672637;29;115356;-63
2020/12/04 00:57:16;;;;;;;23.27;12.88;;;;;;;-0.19;62.78;99395.13;670447;29;158770;-63
2020/12/04 00:57:43;;;;;;;26.08;12.98;;;;;;;-0.17;62.75;99390.53;674707;29;124612;-63
2020/12/04 00:58:04;;;;;;;25.90;13.05;;;;;;;-0.17;62.82;99392.31;678243;29;21464;-63
2020/12/04 00:58:28;;;;;;;27.80;13.15;;;;;;;-0.17;62.74;99387.88;675563;29;69470;-63
2020/12/04 00:58:50;;;;;;;28.00;13.65;;;;;;;-0.19;63.10;99388.00;679021;29;46362;-63
2020/12/04 00:59:11;;;;;;;28.95;13.43;;;;;;;-0.20;62.79;99388.97;680785;28;46445;-63
2020/12/04 00:59:32;;;;;;;28.15;12.85;;;;;;;-0.20;62.98;99386.31;682584;28;21540;-61
2020/12/04 00:59:54;;;;;;;23.90;12.20;;;;;;;-0.20;63.05;99388.97;682396;28;44366;-63
2020/12/04 01:00:15;;;;;;;24.80;12.48;;;;;;;-0.20;63.19;99388.16;684707;28;21326;-62
2020/12/04 01:00:37;;;;;;;25.63;13.27;;;;;;;-0.20;63.33;99382.84;685967;28;14957;-63
2020/12/04 01:00:59;;;;;;;24.50;13.30;;;;;;;-0.20;63.24;99385.50;683299;28;47857;-62
2020/12/04 01:01:20;;;;;;;25.27;12.93;;;;;;;-0.21;63.19;99386.47;684412;28;23408;-63
2020/12/04 01:01:42;;;;;;;27.58;13.20;;;;;;;-0.21;63.14;99382.00;682613;28;45086;-63
2020/12/04 01:02:03;;;;;;;27.73;13.20;;;;;;;-0.22;62.79;99380.34;684244;28;14225;-63
2020/12/04 01:02:24;;;;;;;26.23;13.38;;;;;;;-0.21;63.30;99383.81;683311;28;44790;-63
2020/12/04 01:02:46;;;;;;;24.98;13.23;;;;;;;-0.22;63.27;99374.16;684417;28;8220;-61
2020/12/04 01:03:07;;;;;;;28.92;13.13;;;;;;;-0.22;63.25;99380.34;684936;28;911;-63
2020/12/04 01:03:28;;;;;;;29.02;13.38;;;;;;;-0.22;63.25;99375.03;683863;28;23527;-63
2020/12/04 01:03:50;;;;;;;23.35;12.05;;;;;;;-0.22;63.37;99372.38;683453;28;46326;-63
2020/12/04 01:04:11;;;;;;;24.02;12.70;;;;;;;-0.24;63.22;99376.13;684315;28;22383;-62
2020/12/04 01:04:32;;;;;;;22.73;12.48;;;;;;;-0.25;63.17;99375.31;684286;28;22426;-62
2020/12/04 01:04:53;;;;;;;24.25;12.27;;;;;;;-0.25;63.03;99369.13;682581;28;46331;-64
2020/12/04 01:05:15;;;;;;;26.05;12.65;;;;;;;-0.26;63.17;99373.63;683653;28;24321;-62
2020/12/04 01:05:37;;;;;;;28.33;13.20;;;;;;;-0.26;63.16;99373.63;683987;28;21545;-63
2020/12/04 01:05:58;;;;;;;24.00;12.45;;;;;;;-0.26;63.21;99375.44;682881;28;46315;-62
2020/12/04 01:06:20;;;;;;;24.77;12.98;;;;;;;-0.26;63.23;99375.44;683879;28;24347;-62
2020/12/04 01:06:41;;;;;;;29.15;13.65;;;;;;;-0.28;63.22;99370.28;683074;28;45138;-63
2020/12/04 01:07:04;;;;;;;27.13;12.93;;;;;;;-0.25;62.85;99374.44;684269;28;22414;-62
2020/12/04 01:07:29;;;;;;;26.83;13.43;;;;;;;-0.26;63.41;99368.31;681621;28;91705;-62
2020/12/04 01:07:50;;;;;;;27.48;13.15;;;;;;;-0.26;63.22;99367.50;681093;28;113582;-61
2020/12/04 01:08:11;;;;;;;28.80;13.90;;;;;;;-0.27;63.21;99368.47;683391;28;44380;-63
2020/12/04 01:08:34;;;;;;;28.17;13.98;;;;;;;-0.26;63.39;99372.78;683057;28;43394;-63
2020/12/04 01:08:56;;;;;;;28.80;13.52;;;;;;;-0.26;63.22;99378.94;682490;28;70571;-63
2020/12/04 01:09:17;;;;;;;28.63;12.98;;;;;;;-0.27;63.41;99366.63;684342;28;22515;-61
2020/12/04 01:09:38;;;;;;;24.30;12.38;;;;;;;-0.27;63.42;99365.81;684168;28;23522;-63
2020/12/04 01:10:00;;;;;;;24.20;12.38;;;;;;;-0.26;63.32;99370.13;684351;28;22419;-63
2020/12/04 01:10:21;;;;;;;25.80;12.38;;;;;;;-0.25;63.43;99372.66;684191;28;22408;-63
2020/12/04 01:10:43;;;;;;;25.75;12.40;;;;;;;-0.24;63.26;99363.69;683162;28;46307;-64
2020/12/04 01:11:04;;;;;;;24.58;12.43;;;;;;;-0.23;63.35;99367.22;683942;28;23449;-63
2020/12/04 01:11:27;;;;;;;24.63;12.80;;;;;;;-0.23;63.29;99364.56;683174;28;45259;-64
2020/12/04 01:11:48;;;;;;;24.88;12.50;;;;;;;-0.23;63.33;99359.25;684141;28;20797;-64
2020/12/04 01:12:10;;;;;;;25.88;12.27;;;;;;;-0.24;63.34;99363.69;683267;28;45591;-63
2020/12/04 01:12:31;;;;;;;22.73;11.57;;;;;;;-0.23;63.32;99367.22;684009;28;18988;-62
2020/12/04 01:12:52;;;;;;;22.10;11.48;;;;;;;-0.23;63.22;99368.03;684045;28;22438;-63
2020/12/04 01:13:13;;;;;;;25.13;12.02;;;;;;;-0.24;63.04;99361.03;683238;28;47179;-64
2020/12/04 01:13:36;;;;;;;26.42;12.85;;;;;;;-0.24;63.05;99369.00;683878;28;21531;-63
2020/12/04 01:13:58;;;;;;;26.20;12.75;;;;;;;-0.23;62.90;99368.03;685078;28;878;-61
2020/12/04 01:14:19;;;;;;;26.20;12.95;;;;;;;-0.24;62.90;99362.88;683246;28;46288;-61
2020/12/04 01:14:40;;;;;;;25.08;12.85;;;;;;;-0.24;63.09;99361.03;683968;28;23455;-60
2020/12/04 01:15:01;;;;;;;26.98;13.27;;;;;;;-0.24;63.14;99358.38;683651;28;23443;-64
2020/12/04 01:15:23;;;;;;;25.88;13.18;;;;;;;-0.22;63.03;99368.88;684189;28;21647;-63
2020/12/04 01:15:44;;;;;;;21.95;11.98;;;;;;;-0.21;63.35;99362.59;683475;28;44420;-63
2020/12/04 01:16:08;;;;;;;23.48;12.25;;;;;;;-0.24;63.01;99358.38;684477;28;18378;-62
2020/12/04 01:16:29;;;;;;;22.75;12.40;;;;;;;-0.23;63.10;99364.56;682405;28;67477;-63
2020/12/04 01:16:51;;;;;;;22.40;12.10;;;;;;;-0.24;63.10;99361.03;683257;28;42903;-64
2020/12/04 01:17:12;;;;;;;26.23;12.70;;;;;;;-0.24;63.53;99355.72;684179;28;21561;-63
2020/12/04 01:17:33;;;;;;;24.70;13.17;;;;;;;-0.23;63.23;99359.25;683987;28;21352;-62
2020/12/04 01:17:54;;;;;;;20.98;11.80;;;;;;;-0.24;63.41;99361.03;683255;28;46501;-63
2020/12/04 01:18:17;;;;;;;23.33;12.27;;;;;;;-0.26;63.22;99357.69;683713;28;23525;-62
2020/12/04 01:18:38;;;;;;;26.08;12.60;;;;;;;-0.24;63.36;99354.91;682190;28;69475;-61
2020/12/04 01:19:00;;;;;;;25.70;12.77;;;;;;;-0.25;63.27;99355.88;684558;28;13378;-63
2020/12/04 01:19:21;;;;;;;28.17;12.93;;;;;;;-0.25;63.19;99356.72;684402;28;21610;-62
2020/12/04 01:19:43;;;;;;;26.77;12.85;;;;;;;-0.25;63.19;99354.06;683338;28;44408;-63
2020/12/04 01:20:05;;;;;;;26.77;12.80;;;;;;;-0.23;63.23;99353.94;683236;28;46630;-63
2020/12/04 01:20:26;;;;;;;25.95;12.48;;;;;;;-0.25;63.11;99359.38;683224;28;45240;-63
2020/12/04 01:20:47;;;;;;;24.15;12.27;;;;;;;-0.26;63.14;99360.34;684218;28;23507;-62
2020/12/04 01:21:11;;;;;;;26.48;12.73;;;;;;;-0.25;63.10;99347.91;684368;28;21561;-59
2020/12/04 01:21:32;;;;;;;25.55;12.27;;;;;;;-0.26;63.17;99349.75;681719;28;90772;-61
2020/12/04 01:21:54;;;;;;;23.48;12.52;;;;;;;-0.26;62.97;99346.25;683985;28;18408;-62
2020/12/04 01:22:15;;;;;;;24.50;12.73;;;;;;;-0.26;63.05;99351.56;684187;28;28808;-63
2020/12/04 01:22:37;;;;;;;25.50;12.55;;;;;;;-0.26;63.24;99348.91;684138;28;23439;-61
2020/12/04 01:22:58;;;;;;;24.70;12.30;;;;;;;-0.26;63.23;99352.41;683866;28;22562;-62
2020/12/04 01:23:19;;;;;;;23.65;12.30;;;;;;;-0.27;63.29;99353.34;683232;28;44458;-61
2020/12/04 01:23:41;;;;;;;26.40;13.02;;;;;;;-0.27;63.22;99350.72;684009;28;21552;-63
2020/12/04 01:24:02;;;;;;;25.45;12.80;;;;;;;-0.26;63.18;99344.44;683450;28;44197;-61
2020/12/04 01:24:23;;;;;;;22.73;11.90;;;;;;;-0.25;63.41;99351.44;684440;28;21522;-64
2020/12/04 01:24:45;;;;;;;24.52;12.52;;;;;;;-0.25;63.29;99353.22;684059;28;23444;-63
2020/12/04 01:25:06;;;;;;;23.13;12.50;;;;;;;-0.26;63.46;99349.75;682943;28;45268;-64
2020/12/04 01:25:27;;;;;;;24.65;13.15;;;;;;;-0.27;63.31;99349.88;684062;28;23535;-63
2020/12/04 01:25:49;;;;;;;24.02;11.80;;;;;;;-0.28;63.49;99351.72;684321;28;22425;-63
2020/12/04 01:26:10;;;;;;;25.27;12.65;;;;;;;-0.25;63.37;99358.53;683169;28;46366;-62
2020/12/04 01:26:31;;;;;;;25.30;12.48;;;;;;;-0.26;63.43;99354.22;684009;28;22440;-63
2020/12/04 01:26:53;;;;;;;26.43;12.33;;;;;;;-0.27;63.25;99349.88;683981;28;22530;-64
2020/12/04 01:27:14;;;;;;;24.30;12.27;;;;;;;-0.27;63.31;99348.06;683604;28;42525;-64
2020/12/04 01:27:35;;;;;;;25.40;12.65;;;;;;;-0.27;63.47;99355.19;684267;28;22417;-62
2020/12/04 01:27:57;;;;;;;24.15;12.32;;;;;;;-0.28;63.21;99356.16;684309;28;22435;-63
2020/12/04 01:28:18;;;;;;;24.40;12.27;;;;;;;-0.27;63.37;99355.19;683043;28;47205;-62
2020/12/04 01:28:41;;;;;;;26.85;12.77;;;;;;;-0.30;63.35;99350.16;684131;28;24337;-62
2020/12/04 01:29:02;;;;;;;24.95;12.85;;;;;;;-0.30;63.38;99348.34;682682;28;67532;-62
2020/12/04 01:29:24;;;;;;;24.08;12.68;;;;;;;-0.28;63.15;99358.81;684272;28;22433;-62
2020/12/04 01:29:45;;;;;;;25.58;12.98;;;;;;;-0.28;63.31;99358.81;683377;28;46311;-63
2020/12/04 01:30:06;;;;;;;23.83;12.65;;;;;;;-0.27;63.37;99355.19;684361;28;23406;-64
2020/12/04 01:30:27;;;;;;;25.15;12.68;;;;;;;-0.26;63.40;99356.88;684264;28;22485;-62
2020/12/04 01:30:49;;;;;;;25.25;12.82;;;;;;;-0.26;63.41;99355.03;683560;28;46169;-63
2020/12/04 01:31:10;;;;;;;24.77;12.38;;;;;;;-0.25;63.27;99350.56;683994;28;22480;-62
2020/12/04 01:31:32;;;;;;;22.92;11.98;;;;;;;-0.25;63.22;99355.88;683131;28;45227;-63
2020/12/04 01:31:53;;;;;;;23.67;12.30;;;;;;;-0.25;62.98;99345.25;684143;28;16142;-62
2020/12/04 01:32:15;;;;;;;24.95;12.82;;;;;;;-0.25;63.10;99353.22;684351;28;22593;-63
2020/12/04 01:32:36;;;;;;;26.80;12.52;;;;;;;-0.25;63.23;99350.56;683124;28;46407;-63
2020/12/04 01:32:57;;;;;;;26.90;13.35;;;;;;;-0.26;63.25;99356.88;684255;28;21654;-63
2020/12/04 01:33:18;;;;;;;23.40;12.55;;;;;;;-0.27;63.05;99352.53;684268;28;23431;-63
2020/12/04 01:33:40;;;;;;;25.95;12.70;;;;;;;-0.26;63.29;99352.41;683311;28;46339;-63
2020/12/04 01:34:02;;;;;;;23.70;12.23;;;;;;;-0.26;63.12;99344.44;683521;28;21215;-61
2020/12/04 01:34:23;;;;;;;24.80;12.43;;;;;;;-0.26;63.08;99357.69;683334;28;45070;-63
2020/12/04 01:34:44;;;;;;;24.63;11.98;;;;;;;-0.26;63.38;99343.59;684146;28;21528;-63
2020/12/04 01:35:05;;;;;;;27.42;13.30;;;;;;;-0.26;63.29;99346.25;683390;28;22429;-63
2020/12/04 01:35:27;;;;;;;26.67;13.45;;;;;;;-0.27;63.19;99348.06;683339;28;44559;-64
2020/12/04 01:35:48;;;;;;;25.05;13.10;;;;;;;-0.26;63.13;99352.41;684274;28;21573;-63
2020/12/04 01:36:09;;;;;;;26.40;12.93;;;;;;;-0.26;63.18;99346.25;683482;28;44399;-63
2020/12/04 01:36:31;;;;;;;24.67;13.02;;;;;;;-0.24;63.14;99349.59;684284;28;23433;-64
2020/12/04 01:36:52;;;;;;;24.77;12.32;;;;;;;-0.22;63.25;99348.50;684677;28;1079;-63
2020/12/04 01:37:14;;;;;;;24.63;12.57;;;;;;;-0.22;63.29;99343.19;683870;28;24381;-64
2020/12/04 01:37:35;;;;;;;26.58;12.98;;;;;;;-0.22;63.14;99343.19;683385;28;47210;-63
2020/12/04 01:37:57;;;;;;;24.85;12.73;;;;;;;-0.23;63.14;99340.66;683930;28;44571;-63
2020/12/04 01:38:18;;;;;;;25.40;12.95;;;;;;;-0.24;63.27;99346.94;684477;28;22038;-63
2020/12/04 01:38:40;;;;;;;24.30;12.75;;;;;;;-0.25;63.44;99345.25;684749;28;23537;-62
2020/12/04 01:39:01;;;;;;;22.95;12.00;;;;;;;-0.21;63.25;99350.16;683755;28;44391;-61
2020/12/04 01:39:23;;;;;;;25.13;12.65;;;;;;;-0.22;63.21;99340.53;684450;28;23441;-62
2020/12/04 01:39:44;;;;;;;24.77;13.23;;;;;;;-0.23;63.09;99336.19;684433;28;23448;-64
2020/12/04 01:40:06;;;;;;;23.23;13.02;;;;;;;-0.23;63.25;99336.19;684699;28;22409;-63
2020/12/04 01:40:27;;;;;;;23.70;13.00;;;;;;;-0.23;63.21;99336.19;684056;28;44419;-63
2020/12/04 01:40:48;;;;;;;23.02;12.65;;;;;;;-0.23;63.22;99338.84;684745;28;24333;-62